Time;durP1;ratioP1;P1;durP2;ratioP2;P2;SDS_P1;SDS_P2;PMS_P1;PMS_P2;Temp;Humidity;BMP_temperature;BMP_pressure;BME280_temperature;BME280_humidity;BME280_pressure;Samples;Min_cycle;Max_cycle;Signal;HPM_P1;HPM_P2
2021/07/19 04:48:51;;;;;;;18.87;6.00;;;;;;;21.35;87.31;98315.45;1698075;83;21576;-54
2021/07/19 04:51:19;;;;;;;17.42;5.92;;;;;;;21.24;89.70;98312.09;1698233;83;21099;-55
2021/07/19 04:53:47;;;;;;;13.80;5.33;;;;;;;21.14;90.58;98297.49;1703071;82;21102;-54
2021/07/19 04:56:16;;;;;;;17.70;5.97;;;;;;;20.98;91.72;98272.78;1690128;84;21058;-50
2021/07/19 04:58:43;;;;;;;17.67;5.55;;;;;;;20.81;92.39;98251.85;1686642;83;21520;-60
2021/07/19 05:01:11;;;;;;;12.98;5.37;;;;;;;20.77;94.95;98264.25;1686829;83;21031;-59
2021/07/19 05:03:42;;;;;;;17.60;5.55;;;;;;;20.95;95.71;98273.38;1676646;83;21130;-49
2021/07/19 05:06:10;;;;;;;18.07;5.10;;;;;;;21.33;94.36;98280.08;1709889;82;21034;-49
2021/07/19 05:08:39;;;;;;;17.17;5.07;;;;;;;21.98;90.26;98257.28;1704493;82;21027;-52
2021/07/19 05:11:08;;;;;;;13.55;5.12;;;;;;;22.72;83.72;98250.48;1698860;83;21081;-51
2021/07/19 05:13:37;;;;;;;9.70;4.53;;;;;;;23.08;79.24;98258.56;1691439;83;21531;-52
2021/07/19 05:16:06;;;;;;;7.58;3.67;;;;;;;22.69;78.26;98231.71;1696316;83;21596;-49
2021/07/19 05:18:33;;;;;;;8.73;3.95;;;;;;;21.94;81.64;98244.99;1705850;83;21596;-54
2021/07/19 05:21:01;;;;;;;12.33;4.05;;;;;;;21.21;84.73;98263.08;1727311;82;21024;-46
2021/07/19 05:23:28;;;;;;;12.53;4.10;;;;;;;20.72;87.29;98259.50;1698928;82;21038;-46
2021/07/19 05:25:56;;;;;;;8.58;3.92;;;;;;;20.52;90.99;98268.03;1699659;82;21054;-47
2021/07/19 05:28:24;;;;;;;22.93;4.90;;;;;;;20.68;89.73;98262.74;1722838;82;21037;-46
2021/07/19 05:30:53;;;;;;;12.05;4.55;;;;;;;20.64;100.00;98272.45;1722044;81;21050;-46
2021/07/19 05:33:23;;;;;;;13.40;4.67;;;;;;;20.03;100.00;98273.11;1713563;82;21053;-54
2021/07/19 05:35:52;;;;;;;11.65;4.40;;;;;;;19.49;100.00;98279.98;1741065;81;21504;-44
2021/07/19 05:38:23;;;;;;;11.50;4.50;;;;;;;19.17;100.00;98283.16;1736200;80;21181;-58
2021/07/19 05:40:51;;;;;;;19.60;5.37;;;;;;;19.03;100.00;98284.30;1698564;82;21078;-53
2021/07/19 05:43:19;;;;;;;12.82;4.70;;;;;;;18.95;100.00;98278.22;1708118;81;21019;-54
2021/07/19 05:45:49;;;;;;;10.60;5.08;;;;;;;18.90;100.00;98283.58;1717198;81;21066;-56
2021/07/19 05:48:18;;;;;;;12.37;4.55;;;;;;;18.88;100.00;98267.84;1725115;80;21114;-51
2021/07/19 05:50:46;;;;;;;12.18;4.75;;;;;;;18.98;100.00;98273.64;1725557;80;21493;-48
2021/07/19 05:53:14;;;;;;;14.63;4.78;;;;;;;19.01;100.00;98273.90;1742219;81;21086;-43
2021/07/19 05:55:43;;;;;;;7.47;4.20;;;;;;;19.07;100.00;98272.80;1716948;82;21134;-51
2021/07/19 05:58:10;;;;;;;11.38;4.47;;;;;;;19.09;100.00;98267.96;1737683;79;21076;-53
2021/07/19 06:00:38;;;;;;;11.22;4.30;;;;;;;19.08;100.00;98238.32;1747785;80;21002;-42
2021/07/19 06:03:05;;;;;;;15.63;4.67;;;;;;;19.04;100.00;98226.63;1746894;80;21068;-49
2021/07/19 06:05:33;;;;;;;11.95;4.67;;;;;;;19.01;100.00;98228.49;1746129;80;21062;-49
2021/07/19 06:08:03;;;;;;;10.95;5.00;;;;;;;19.00;100.00;98200.73;1746664;79;21538;-48
2021/07/19 06:10:31;;;;;;;12.33;5.28;;;;;;;19.05;100.00;98204.17;1746912;81;21036;-55
2021/07/19 06:12:59;;;;;;;12.93;5.30;;;;;;;19.14;100.00;98211.03;1734830;80;21563;-51
2021/07/19 06:15:27;;;;;;;14.05;5.60;;;;;;;19.26;100.00;98212.81;1740194;81;21139;-56
2021/07/19 06:17:55;;;;;;;13.15;5.65;;;;;;;19.43;100.00;98206.27;1753170;80;21048;-49
2021/07/19 06:20:29;;;;;;;12.78;5.92;;;;;;;19.71;100.00;98196.67;1767286;80;21105;-48
2021/07/19 06:23:01;;;;;;;14.73;6.10;;;;;;;20.09;100.00;98174.33;1759035;81;21023;-53
2021/07/19 06:25:29;;;;;;;16.42;7.10;;;;;;;20.54;100.00;98191.47;1747860;80;21106;-54
2021/07/19 06:27:57;;;;;;;16.93;7.45;;;;;;;21.05;100.00;98194.75;1728958;82;21052;-51
2021/07/19 06:30:25;;;;;;;20.70;8.13;;;;;;;21.60;100.00;98198.39;1730318;82;21100;-45
2021/07/19 06:32:53;;;;;;;16.40;7.75;;;;;;;21.97;100.00;98203.37;1716578;82;21009;-49
2021/07/19 06:35:21;;;;;;;22.65;8.58;;;;;;;22.31;100.00;98218.28;1691371;82;21080;-45
2021/07/19 06:37:48;;;;;;;16.23;6.53;;;;;;;22.63;100.00;98220.83;1687913;83;21111;-45
2021/07/19 06:40:16;;;;;;;16.35;7.28;;;;;;;22.91;100.00;98233.69;1687073;82;21072;-53
2021/07/19 06:42:44;;;;;;;27.00;6.72;;;;;;;23.29;100.00;98244.91;1691508;83;21129;-50
2021/07/19 06:45:13;;;;;;;16.12;6.90;;;;;;;23.68;100.00;98273.56;1687682;83;21585;-51
2021/07/19 06:47:40;;;;;;;17.20;7.00;;;;;;;23.87;100.00;98290.32;1706486;83;21106;-53
2021/07/19 06:50:10;;;;;;;18.20;6.80;;;;;;;23.90;96.48;98305.84;1686124;83;21550;-53
2021/07/19 06:52:41;;;;;;;16.75;7.20;;;;;;;23.91;95.32;98317.39;1705144;82;22026;-55
2021/07/19 06:55:10;;;;;;;22.90;6.62;;;;;;;23.90;94.17;98317.95;1706834;81;21086;-50
2021/07/19 06:57:38;;;;;;;22.58;7.20;;;;;;;23.90;94.24;98331.41;1690877;82;21000;-49
2021/07/19 07:00:08;;;;;;;19.45;6.87;;;;;;;23.91;94.16;98337.02;1696339;81;21111;-50
2021/07/19 07:02:35;;;;;;;17.62;6.75;;;;;;;23.90;93.67;98334.65;1701441;81;21118;-48
2021/07/19 07:05:04;;;;;;;19.40;6.65;;;;;;;23.88;93.82;98306.70;1708048;81;21138;-53
2021/07/19 07:07:31;;;;;;;18.50;6.78;;;;;;;23.87;93.01;98300.30;1701649;82;21009;-50
2021/07/19 07:09:59;;;;;;;15.03;6.65;;;;;;;23.81;92.69;98296.94;1687992;84;21004;-51
2021/07/19 07:12:27;;;;;;;18.23;8.55;;;;;;;23.70;93.50;98296.39;1695702;82;21035;-50
2021/07/19 07:14:54;;;;;;;23.65;8.40;;;;;;;23.66;94.30;98301.34;1707471;82;21084;-55
2021/07/19 07:17:22;;;;;;;13.72;6.35;;;;;;;23.65;94.54;98309.97;1693820;83;21090;-53
2021/07/19 07:19:51;;;;;;;18.55;6.35;;;;;;;23.65;94.40;98312.66;1692695;83;21045;-52
2021/07/19 07:22:18;;;;;;;10.10;4.95;;;;;;;23.73;93.33;98314.59;1694926;82;21127;-55
2021/07/19 07:24:46;;;;;;;10.23;4.20;;;;;;;23.83;91.07;98311.66;1694097;82;21123;-58
2021/07/19 07:27:18;;;;;;;11.08;4.33;;;;;;;23.83;90.29;98317.04;1698085;82;21044;-49
2021/07/19 07:29:47;;;;;;;10.65;4.35;;;;;;;23.72;90.77;98332.41;1758587;79;21032;-48
2021/07/19 07:32:16;;;;;;;11.12;4.00;;;;;;;23.70;90.97;98330.58;1751300;80;21079;-48
2021/07/19 07:34:47;;;;;;;9.40;4.12;;;;;;;23.74;90.52;98324.80;1750931;79;21026;-47
2021/07/19 07:37:21;;;;;;;9.35;4.47;;;;;;;23.76;90.12;98312.65;1763664;80;21316;-47
2021/07/19 07:39:50;;;;;;;16.12;7.47;;;;;;;23.79;88.51;98291.84;1772329;79;21630;-47
2021/07/19 07:42:20;;;;;;;12.03;5.83;;;;;;;23.77;86.79;98281.95;1723998;81;20980;-46
2021/07/19 07:44:49;;;;;;;10.18;4.78;;;;;;;23.73;85.38;98273.44;1746374;80;21011;-45
2021/07/19 07:47:18;;;;;;;14.65;7.28;;;;;;;23.50;86.12;98265.36;1760966;79;21055;-52
2021/07/19 07:49:49;;;;;;;16.20;6.47;;;;;;;23.36;89.38;98256.57;1681365;81;21528;-50
2021/07/19 07:52:17;;;;;;;14.98;6.12;;;;;;;23.49;88.22;98248.19;1747131;81;21133;-46
2021/07/19 07:54:45;;;;;;;16.57;6.17;;;;;;;23.38;87.42;98240.91;1735078;81;21042;-48
2021/07/19 07:57:14;;;;;;;16.35;6.45;;;;;;;23.19;87.90;98236.28;1736635;80;21050;-49
2021/07/19 07:59:42;;;;;;;13.80;6.47;;;;;;;22.98;88.63;98234.60;1743759;81;21028;-51
2021/07/19 08:02:10;;;;;;;14.25;6.65;;;;;;;22.74;91.00;98245.03;1731936;81;21019;-46
2021/07/19 08:04:38;;;;;;;15.53;7.00;;;;;;;22.77;92.32;98255.74;1739943;81;21078;-50
2021/07/19 08:07:06;;;;;;;11.93;5.95;;;;;;;22.86;91.60;98265.22;1743091;80;21089;-53
2021/07/19 08:09:35;;;;;;;15.35;5.80;;;;;;;22.98;91.14;98271.67;1733127;80;21537;-49
2021/07/19 08:12:04;;;;;;;19.20;6.37;;;;;;;23.20;91.90;98278.19;1744780;79;21090;-55
2021/07/19 08:14:33;;;;;;;16.45;5.97;;;;;;;23.67;89.82;98262.02;1741670;80;21023;-57
2021/07/19 08:17:04;;;;;;;12.00;5.90;;;;;;;24.05;86.66;98256.20;1746262;79;21003;-54
2021/07/19 08:19:34;;;;;;;14.60;6.17;;;;;;;24.10;85.47;98245.30;1730019;80;21012;-54
2021/07/19 08:22:03;;;;;;;17.42;6.40;;;;;;;24.28;85.54;98242.91;1744585;79;21039;-52
2021/07/19 08:24:31;;;;;;;16.12;6.28;;;;;;;24.48;80.05;98230.77;1730611;79;21490;-47
2021/07/19 08:26:58;;;;;;;20.00;6.35;;;;;;;24.49;82.63;98224.86;1775625;80;21094;-54
2021/07/19 08:29:26;;;;;;;16.30;6.58;;;;;;;24.85;81.16;98243.45;1765906;79;21034;-57
2021/07/19 08:31:55;;;;;;;16.00;6.80;;;;;;;25.26;79.90;98257.83;1755768;79;21097;-53
2021/07/19 08:34:23;;;;;;;17.90;6.72;;;;;;;25.62;77.46;98245.31;1759771;79;21047;-53
2021/07/19 08:36:53;;;;;;;15.80;6.67;;;;;;;25.83;75.70;98238.71;1774261;80;21007;-54
2021/07/19 08:39:20;;;;;;;16.90;6.60;;;;;;;26.14;74.25;98237.62;1755752;79;21526;-53
2021/07/19 08:41:48;;;;;;;15.70;6.92;;;;;;;26.35;73.68;98220.14;1768652;80;21046;-53
2021/07/19 08:44:16;;;;;;;15.60;6.95;;;;;;;26.33;72.58;98210.22;1769375;80;21166;-54
2021/07/19 08:46:44;;;;;;;13.68;6.97;;;;;;;26.24;73.17;98218.92;1769416;79;21207;-53
2021/07/19 08:49:11;;;;;;;19.05;7.25;;;;;;;26.20;73.55;98210.11;1765871;79;21035;-51
2021/07/19 08:51:42;;;;;;;17.57;7.30;;;;;;;25.97;72.46;98203.39;1763497;79;21019;-53
2021/07/19 08:54:13;;;;;;;16.75;6.78;;;;;;;25.74;74.38;98177.20;1766049;79;21043;-50
2021/07/19 08:56:40;;;;;;;16.50;6.83;;;;;;;25.58;75.35;98201.78;1758688;79;20984;-50
2021/07/19 08:59:13;;;;;;;16.77;6.25;;;;;;;25.44;75.83;98216.79;1739401;82;21122;-52
2021/07/19 09:01:40;;;;;;;18.02;7.03;;;;;;;25.39;75.49;98211.00;1742714;81;21368;-54
2021/07/19 09:04:08;;;;;;;15.93;6.78;;;;;;;25.49;75.32;98215.27;1733711;81;21507;-52
2021/07/19 09:06:39;;;;;;;19.70;7.30;;;;;;;25.58;70.66;98228.77;1745333;81;21066;-56
2021/07/19 09:09:07;;;;;;;15.30;6.97;;;;;;;25.56;69.54;98233.11;1728783;81;21587;-53
2021/07/19 09:11:35;;;;;;;19.50;6.67;;;;;;;25.51;70.48;98231.13;1725559;81;21077;-51
2021/07/19 09:14:05;;;;;;;17.12;7.10;;;;;;;25.66;69.40;98253.57;1691096;83;21067;-50
2021/07/19 09:16:44;;;;;;;20.43;9.65;;;;;;;25.82;69.25;98272.78;1764336;80;21069;-53
2021/07/19 09:19:18;;;;;;;17.07;8.20;;;;;;;25.96;69.86;98286.86;1748403;79;21011;-51
2021/07/19 09:21:49;;;;;;;14.40;7.62;;;;;;;26.17;68.00;98285.05;1762738;80;21537;-54
2021/07/19 09:24:22;;;;;;;17.55;7.50;;;;;;;26.25;67.71;98290.17;1751317;79;21022;-55
2021/07/19 09:26:52;;;;;;;20.17;7.53;;;;;;;26.38;66.38;98287.83;1726112;82;21038;-51
2021/07/19 09:29:22;;;;;;;18.77;6.75;;;;;;;26.34;66.03;98280.14;1764085;79;21078;-56
2021/07/19 09:32:00;;;;;;;14.15;6.58;;;;;;;26.30;64.47;98276.49;1767435;80;21055;-52
2021/07/19 09:34:30;;;;;;;16.25;7.37;;;;;;;26.39;65.46;98285.92;1751409;79;21003;-55
2021/07/19 09:37:09;;;;;;;19.10;7.65;;;;;;;26.61;64.46;98288.38;1705168;81;50787;-53
2021/07/19 09:39:47;;;;;;;21.10;7.42;;;;;;;26.69;64.05;98284.83;1711449;81;21062;-56
2021/07/19 09:42:17;;;;;;;18.77;6.83;;;;;;;26.54;64.73;98298.89;1686224;83;21095;-51
2021/07/19 09:44:53;;;;;;;19.75;7.10;;;;;;;26.46;66.03;98299.73;1599510;87;21114;-51
2021/07/19 09:47:35;;;;;;;17.57;7.45;;;;;;;26.71;64.46;98288.55;1610218;87;21133;-47
2021/07/19 09:50:11;;;;;;;15.25;6.92;;;;;;;27.03;62.98;98288.98;1627895;87;21106;-49
2021/07/19 09:52:41;;;;;;;16.90;6.80;;;;;;;27.17;61.54;98290.88;1631649;86;21019;-57
2021/07/19 09:55:26;;;;;;;16.20;6.80;;;;;;;27.20;62.60;98288.31;1624293;86;21083;-50
2021/07/19 09:57:59;;;;;;;16.82;6.60;;;;;;;27.26;60.03;98280.80;1628831;85;21066;-47
2021/07/19 10:00:30;;;;;;;16.50;6.33;;;;;;;27.14;60.54;98276.68;1611592;87;21653;-55
2021/07/19 10:03:05;;;;;;;13.93;6.25;;;;;;;27.22;60.48;98282.00;1645676;85;21094;-60
2021/07/19 10:05:32;;;;;;;12.65;6.17;;;;;;;27.50;59.46;98279.53;1601903;86;21074;-51
2021/07/19 10:08:00;;;;;;;18.02;7.58;;;;;;;27.71;58.00;98277.39;1630294;85;21169;-51
2021/07/19 10:10:44;;;;;;;13.40;6.85;;;;;;;27.76;57.21;98261.72;1626693;87;21082;-49
2021/07/19 10:13:12;;;;;;;15.80;7.30;;;;;;;27.84;57.16;98255.19;1625914;87;21072;-54
2021/07/19 10:15:41;;;;;;;16.20;7.83;;;;;;;27.83;55.81;98268.50;1630772;85;21590;-54
2021/07/19 10:18:11;;;;;;;19.70;7.50;;;;;;;27.59;57.27;98273.27;1637977;86;21173;-48
2021/07/19 10:20:40;;;;;;;15.48;7.53;;;;;;;27.41;58.26;98261.25;1645869;85;21091;-47
2021/07/19 10:23:11;;;;;;;15.50;6.87;;;;;;;27.62;57.63;98267.16;1642223;85;21082;-47
2021/07/19 10:25:39;;;;;;;13.93;7.10;;;;;;;27.77;56.05;98248.97;1635379;87;21071;-53
2021/07/19 10:28:07;;;;;;;17.07;6.85;;;;;;;27.74;55.71;98252.33;1628882;86;21118;-48
2021/07/19 10:30:35;;;;;;;17.20;8.05;;;;;;;27.66;55.84;98253.20;1642928;85;21054;-59
2021/07/19 10:33:03;;;;;;;16.02;7.30;;;;;;;27.66;55.72;98252.63;1630786;87;21505;-54
2021/07/19 10:35:31;;;;;;;16.93;7.22;;;;;;;27.60;55.25;98243.70;1623026;87;21123;-51
2021/07/19 10:38:10;;;;;;;19.27;8.85;;;;;;;27.51;55.75;98247.28;1613803;87;21486;-53
2021/07/19 10:40:40;;;;;;;16.87;9.38;;;;;;;27.53;56.44;98250.45;1633825;85;21032;-45
2021/07/19 10:43:14;;;;;;;14.10;7.55;;;;;;;27.67;55.49;98255.56;1631751;85;21060;-53
2021/07/19 10:45:48;;;;;;;15.85;7.75;;;;;;;27.46;55.28;98250.75;1596153;87;21204;-55
2021/07/19 10:48:32;;;;;;;15.30;6.78;;;;;;;27.23;56.97;98238.94;1631936;85;21663;-48
2021/07/19 10:51:16;;;;;;;15.83;7.53;;;;;;;27.15;56.92;98231.70;1629052;85;21554;-48
2021/07/19 10:53:44;;;;;;;15.95;7.72;;;;;;;27.08;58.45;98232.02;1591902;86;21158;-49
2021/07/19 10:56:14;;;;;;;13.88;7.45;;;;;;;27.07;60.02;98247.45;1622765;87;21085;-47
2021/07/19 10:58:43;;;;;;;;;;;;;;;26.98;59.51;98242.08;1612878;87;21529;-56
2021/07/19 11:01:29;;;;;;;16.15;7.25;;;;;;;26.89;59.74;98241.34;1632418;85;20382;-54
2021/07/19 11:03:59;;;;;;;14.38;7.12;;;;;;;26.98;60.01;98251.54;1603473;86;21123;-60
2021/07/19 11:06:39;;;;;;;13.68;6.85;;;;;;;27.17;59.51;98242.19;1617946;86;21099;-55
2021/07/19 11:09:07;;;;;;;11.53;5.50;;;;;;;27.36;58.28;98240.37;1635487;85;21043;-58
2021/07/19 11:11:40;;;;;;;14.38;5.87;;;;;;;27.41;53.76;98245.55;1632872;85;21085;-56
2021/07/19 11:14:24;;;;;;;14.45;5.95;;;;;;;27.14;54.13;98245.01;1634660;85;21062;-61
2021/07/19 11:16:51;;;;;;;13.68;5.83;;;;;;;27.09;54.98;98252.53;1655114;85;21594;-56
2021/07/19 11:19:36;;;;;;;;;;;;;;;27.32;55.73;98245.64;1673495;84;21108;-56
2021/07/19 11:22:08;;;;;;;12.13;5.50;;;;;;;27.68;54.57;98242.25;1681653;84;20159;-60
2021/07/19 11:24:52;;;;;;;12.20;4.87;;;;;;;28.05;52.70;98235.58;1603927;87;21235;-57
2021/07/19 11:27:38;;;;;;;12.50;5.25;;;;;;;28.16;52.50;98225.06;1660319;85;21090;-64
2021/07/19 11:30:10;;;;;;;13.53;5.67;;;;;;;28.31;52.18;98218.97;1647858;85;21069;-60
2021/07/19 11:32:40;;;;;;;10.70;4.78;;;;;;;28.30;51.32;98223.61;1650646;85;21043;-57
2021/07/19 11:35:24;;;;;;;13.80;5.58;;;;;;;27.98;51.75;98230.70;1649951;85;21521;-64
2021/07/19 11:37:59;;;;;;;16.02;5.97;;;;;;;27.87;52.78;98235.00;1645122;85;21077;-66
2021/07/19 11:40:29;;;;;;;12.75;5.40;;;;;;;27.90;51.77;98232.17;1640811;86;21139;-57
2021/07/19 11:43:15;;;;;;;12.43;5.53;;;;;;;27.58;53.74;98224.28;1627564;86;21923;-57
2021/07/19 11:45:45;;;;;;;12.65;5.78;;;;;;;27.31;54.15;98222.98;1623857;87;21054;-55
2021/07/19 11:48:13;;;;;;;13.13;6.42;;;;;;;27.22;55.43;98214.94;1642306;86;21049;-59
2021/07/19 11:50:40;;;;;;;11.95;6.00;;;;;;;27.26;56.62;98228.03;1636077;85;21707;-59
2021/07/19 11:53:09;;;;;;;11.97;6.22;;;;;;;27.12;56.90;98220.18;1635201;85;21066;-56
2021/07/19 11:55:38;;;;;;;13.55;6.37;;;;;;;26.98;58.92;98220.44;1639929;85;21177;-56
2021/07/19 11:58:06;;;;;;;12.28;6.55;;;;;;;26.93;58.61;98214.44;1636803;86;21129;-57
2021/07/19 12:00:39;;;;;;;16.27;6.72;;;;;;;26.97;58.98;98211.31;1631624;86;21111;-54
2021/07/19 12:03:16;;;;;;;15.13;7.10;;;;;;;27.24;59.37;98222.14;1615154;87;21554;-47
2021/07/19 12:05:56;;;;;;;18.05;7.20;;;;;;;27.30;60.74;98211.38;1647846;84;21139;-47
2021/07/19 12:08:31;;;;;;;16.93;6.92;;;;;;;27.43;59.75;98217.04;1675001;84;21581;-47
2021/07/19 12:11:06;;;;;;;13.95;6.50;;;;;;;27.64;58.83;98221.05;1667720;84;21093;-48
2021/07/19 12:13:37;;;;;;;15.08;6.70;;;;;;;27.66;57.88;98228.83;1669666;84;21102;-49
2021/07/19 12:16:06;;;;;;;12.37;6.20;;;;;;;27.71;56.33;98225.37;1587863;88;21524;-48
2021/07/19 12:18:48;;;;;;;14.05;6.60;;;;;;;27.53;56.68;98223.95;1658176;84;21048;-51
2021/07/19 12:21:23;;;;;;;15.48;6.95;;;;;;;27.28;56.74;98220.92;1644682;86;21565;-52
2021/07/19 12:23:53;;;;;;;15.58;6.72;;;;;;;27.12;56.99;98216.69;1639215;87;21565;-46
2021/07/19 12:26:34;;;;;;;10.90;6.35;;;;;;;27.10;58.24;98221.09;1652802;86;21610;-47
2021/07/19 12:29:06;;;;;;;19.23;6.60;;;;;;;27.08;58.28;98215.23;1653245;85;21055;-47
2021/07/19 12:31:51;;;;;;;12.05;6.60;;;;;;;26.97;59.21;98217.51;1637193;86;21088;-50
2021/07/19 12:34:29;;;;;;;12.37;6.40;;;;;;;26.91;59.41;98216.13;1671502;84;21070;-50
2021/07/19 12:37:03;;;;;;;16.40;6.58;;;;;;;26.75;59.71;98221.89;1667330;83;21548;-46
2021/07/19 12:39:39;;;;;;;15.88;6.33;;;;;;;26.65;60.34;98224.98;1679662;83;21074;-51
2021/07/19 12:42:12;;;;;;;14.07;6.03;;;;;;;26.63;60.26;98219.13;1672364;83;21105;-49
2021/07/19 12:44:42;;;;;;;11.45;6.08;;;;;;;26.72;58.90;98221.19;1657382;84;21620;-48
2021/07/19 12:47:11;;;;;;;15.13;6.30;;;;;;;26.79;59.83;98221.48;1663099;83;21070;-49
2021/07/19 12:49:40;;;;;;;12.85;6.28;;;;;;;27.13;58.17;98209.61;1644015;85;21086;-47
2021/07/19 12:52:20;;;;;;;15.55;5.90;;;;;;;27.34;56.42;98202.80;1677118;83;21089;-47
2021/07/19 12:54:59;;;;;;;10.15;5.10;;;;;;;27.57;54.82;98205.91;1643115;85;21250;-50
2021/07/19 12:57:30;;;;;;;11.03;5.28;;;;;;;27.58;51.99;98203.41;1610084;86;21050;-48
2021/07/19 12:59:58;;;;;;;13.38;5.45;;;;;;;27.43;52.40;98200.80;1589431;87;21151;-48
2021/07/19 13:02:27;;;;;;;15.20;6.42;;;;;;;27.34;52.59;98187.91;1600144;87;21067;-50
2021/07/19 13:04:57;;;;;;;11.43;5.42;;;;;;;27.41;53.24;98194.13;1629361;85;22195;-46
2021/07/19 13:07:31;;;;;;;12.23;5.35;;;;;;;27.55;53.83;98192.48;1603990;87;21629;-48
2021/07/19 13:10:13;;;;;;;13.43;5.05;;;;;;;27.59;52.73;98197.47;1680130;84;21102;-49
2021/07/19 13:12:57;;;;;;;11.75;5.35;;;;;;;27.56;53.24;98188.65;1668671;83;21491;-51
2021/07/19 13:15:27;;;;;;;10.53;4.90;;;;;;;27.76;51.46;98198.66;1671125;82;21095;-49
2021/07/19 13:18:07;;;;;;;10.10;5.08;;;;;;;27.73;50.69;98187.91;1672574;84;21357;-47
2021/07/19 13:20:38;;;;;;;11.75;5.75;;;;;;;27.73;51.21;98186.56;1686265;83;21098;-48
2021/07/19 13:23:17;;;;;;;16.48;5.30;;;;;;;27.82;50.95;98188.39;1683916;84;21545;-47
2021/07/19 13:25:46;;;;;;;13.80;6.62;;;;;;;27.83;50.94;98179.92;1646107;84;21059;-49
2021/07/19 13:28:16;;;;;;;12.55;5.20;;;;;;;27.93;51.91;98171.89;1667076;84;21058;-52
2021/07/19 13:30:44;;;;;;;13.30;5.22;;;;;;;28.22;51.43;98162.20;1675571;83;21537;-48
2021/07/19 13:33:12;;;;;;;17.42;6.53;;;;;;;28.49;50.16;98153.92;1666860;83;21082;-61
2021/07/19 13:35:42;;;;;;;13.10;5.70;;;;;;;28.60;49.89;98158.30;1694434;84;21038;-55
2021/07/19 13:38:10;;;;;;;17.73;5.28;;;;;;;28.50;49.95;98165.02;1678489;83;21136;-56
2021/07/19 13:40:47;;;;;;;11.70;5.70;;;;;;;28.34;49.33;98163.34;1668683;83;21010;-50
2021/07/19 13:43:22;;;;;;;14.03;5.40;;;;;;;28.17;50.37;98159.72;1680045;83;21109;-48
2021/07/19 13:46:00;;;;;;;13.83;6.25;;;;;;;28.19;50.42;98171.00;1682034;82;21709;-49
2021/07/19 13:48:28;;;;;;;11.22;5.40;;;;;;;28.21;49.41;98175.50;1670765;84;21066;-51
2021/07/19 13:50:56;;;;;;;8.45;4.47;;;;;;;28.21;50.05;98166.59;1671582;84;21010;-60
2021/07/19 13:53:23;;;;;;;11.33;5.25;;;;;;;28.24;47.96;98180.82;1670764;85;21098;-58
2021/07/19 13:56:03;;;;;;;12.60;6.17;;;;;;;28.07;48.11;98172.36;1665948;84;22226;-60
2021/07/19 13:58:31;;;;;;;9.70;5.08;;;;;;;27.92;49.12;98152.72;1686119;85;21043;-61
2021/07/19 14:00:59;;;;;;;12.47;5.65;;;;;;;27.92;49.56;98161.63;1678014;84;21198;-59
2021/07/19 14:03:27;;;;;;;16.90;6.00;;;;;;;27.99;50.36;98164.59;1672540;84;21058;-57
2021/07/19 14:05:54;;;;;;;14.78;5.78;;;;;;;28.02;49.87;98162.53;1674598;84;21122;-57
2021/07/19 14:08:23;;;;;;;13.88;5.50;;;;;;;28.04;49.81;98160.30;1670505;84;21592;-59
2021/07/19 14:10:51;;;;;;;11.00;5.35;;;;;;;28.04;49.74;98158.95;1670419;84;21055;-58
2021/07/19 14:13:19;;;;;;;10.85;4.92;;;;;;;28.05;49.19;98164.58;1694421;84;21158;-56
2021/07/19 14:15:49;;;;;;;12.00;5.33;;;;;;;27.99;49.04;98165.94;1677231;84;21175;-58
2021/07/19 14:18:17;;;;;;;12.90;5.47;;;;;;;27.82;49.44;98166.16;1612756;87;21111;-62
2021/07/19 14:20:44;;;;;;;14.47;5.85;;;;;;;27.73;50.33;98161.41;1628535;87;21066;-59
2021/07/19 14:23:13;;;;;;;13.18;5.87;;;;;;;27.74;51.07;98158.92;1646878;86;21047;-58
2021/07/19 14:25:41;;;;;;;14.80;5.55;;;;;;;27.82;51.38;98157.25;1623604;87;21127;-60
2021/07/19 14:28:09;;;;;;;12.90;6.03;;;;;;;27.92;51.02;98155.42;1631953;86;21102;-59
2021/07/19 14:30:37;;;;;;;13.95;5.47;;;;;;;28.02;51.37;98152.27;1684991;84;21091;-59
2021/07/19 14:33:04;;;;;;;17.73;6.08;;;;;;;28.14;50.78;98161.73;1668635;84;21105;-58
2021/07/19 14:35:32;;;;;;;15.08;6.00;;;;;;;28.19;50.39;98160.73;1667672;84;21075;-58
2021/07/19 14:38:00;;;;;;;17.30;6.67;;;;;;;28.18;50.31;98157.23;1678893;84;21006;-60
2021/07/19 14:40:27;;;;;;;11.78;5.75;;;;;;;28.20;51.00;98163.66;1670242;84;21046;-59
2021/07/19 14:42:55;;;;;;;15.20;5.58;;;;;;;28.25;50.49;98150.66;1666904;84;21038;-58
2021/07/19 14:45:23;;;;;;;11.97;5.62;;;;;;;28.21;49.20;98152.47;1670881;84;21114;-60
2021/07/19 14:47:51;;;;;;;14.73;6.50;;;;;;;28.13;49.22;98150.69;1675799;84;21134;-56
2021/07/19 14:50:19;;;;;;;18.65;5.87;;;;;;;28.03;49.84;98139.73;1679736;84;21105;-58
2021/07/19 14:52:47;;;;;;;15.53;6.33;;;;;;;27.98;50.58;98154.07;1666464;84;21078;-61
2021/07/19 14:55:15;;;;;;;12.00;5.72;;;;;;;27.91;50.44;98147.08;1668116;84;21101;-62
2021/07/19 14:57:43;;;;;;;12.53;5.70;;;;;;;27.87;49.91;98146.98;1642989;84;21173;-60
2021/07/19 15:00:13;;;;;;;10.65;5.37;;;;;;;27.89;50.14;98137.16;1674023;85;21075;-60
2021/07/19 15:02:40;;;;;;;14.15;5.58;;;;;;;27.92;49.62;98140.53;1671422;84;21047;-59
2021/07/19 15:05:09;;;;;;;15.35;6.00;;;;;;;27.90;49.49;98136.81;1673351;84;21063;-59
2021/07/19 15:07:37;;;;;;;15.68;5.72;;;;;;;27.87;50.05;98145.63;1688909;85;21099;-58
2021/07/19 15:10:08;;;;;;;13.53;5.72;;;;;;;27.89;50.93;98138.52;1670270;84;21087;-58
2021/07/19 15:12:36;;;;;;;14.98;5.72;;;;;;;27.90;51.16;98151.71;1681790;84;21023;-59
2021/07/19 15:15:07;;;;;;;14.27;6.70;;;;;;;27.85;51.46;98150.58;1678244;84;21069;-60
2021/07/19 15:17:35;;;;;;;13.58;5.83;;;;;;;27.73;51.25;98152.72;1671204;84;21602;-58
2021/07/19 15:20:04;;;;;;;12.33;5.80;;;;;;;27.65;52.02;98148.75;1656627;84;21094;-61
2021/07/19 15:22:32;;;;;;;15.15;5.65;;;;;;;27.66;51.77;98152.46;1673560;84;21541;-57
2021/07/19 15:25:02;;;;;;;14.28;6.12;;;;;;;27.75;51.82;98152.38;1700599;84;21078;-60
2021/07/19 15:27:30;;;;;;;15.70;6.17;;;;;;;27.79;51.72;98145.16;1675677;84;21010;-59
2021/07/19 15:30:00;;;;;;;14.33;6.15;;;;;;;27.86;52.04;98139.18;1690375;84;21090;-60
2021/07/19 15:32:28;;;;;;;12.93;5.73;;;;;;;27.95;51.51;98130.39;1673931;84;21077;-60
2021/07/19 15:34:55;;;;;;;11.45;6.05;;;;;;;27.99;50.35;98136.14;1675744;84;21057;-61
2021/07/19 15:37:23;;;;;;;16.87;6.67;;;;;;;27.96;50.36;98130.61;1676517;84;21163;-58
2021/07/19 15:39:51;;;;;;;13.08;6.12;;;;;;;27.92;51.27;98134.55;1679507;84;21113;-59
2021/07/19 15:42:19;;;;;;;13.85;5.97;;;;;;;27.93;50.69;98129.38;1677260;84;21049;-60
2021/07/19 15:44:47;;;;;;;11.55;5.90;;;;;;;27.87;50.51;98135.34;1688183;83;21133;-60
2021/07/19 15:47:15;;;;;;;9.68;5.40;;;;;;;27.76;50.69;98135.02;1684004;84;21042;-60
2021/07/19 15:49:43;;;;;;;14.10;6.17;;;;;;;27.66;50.77;98134.86;1682502;83;21097;-58
2021/07/19 15:52:11;;;;;;;13.55;5.67;;;;;;;27.56;51.54;98133.95;1691352;84;21197;-57
2021/07/19 15:54:39;;;;;;;13.40;5.85;;;;;;;27.53;51.98;98135.98;1677019;84;21054;-58
2021/07/19 15:57:08;;;;;;;12.43;5.95;;;;;;;27.57;51.90;98137.44;1685383;84;21117;-59
2021/07/19 15:59:36;;;;;;;17.17;6.33;;;;;;;27.58;51.79;98139.80;1684542;84;21547;-60
2021/07/19 16:02:04;;;;;;;13.30;5.80;;;;;;;27.51;51.63;98143.64;1672635;84;21054;-58
2021/07/19 16:04:32;;;;;;;12.88;5.78;;;;;;;27.42;52.22;98132.92;1671156;85;21019;-58
2021/07/19 16:07:04;;;;;;;11.80;5.85;;;;;;;27.36;52.04;98124.80;1679714;84;21102;-58
2021/07/19 16:09:33;;;;;;;10.50;5.92;;;;;;;27.32;52.48;98121.74;1693945;84;21007;-59
2021/07/19 16:12:03;;;;;;;10.93;5.60;;;;;;;27.29;52.86;98131.30;1671135;85;25177;-57
2021/07/19 16:14:31;;;;;;;15.95;6.20;;;;;;;27.22;52.55;98136.48;1678813;84;21054;-59
2021/07/19 16:17:01;;;;;;;12.93;5.45;;;;;;;27.18;53.19;98132.84;1681383;84;21522;-59
2021/07/19 16:19:29;;;;;;;11.30;5.35;;;;;;;27.15;52.86;98138.38;1687041;84;21023;-59
2021/07/19 16:21:56;;;;;;;12.45;5.67;;;;;;;27.10;52.71;98137.80;1665917;84;21058;-60
2021/07/19 16:24:25;;;;;;;14.63;6.50;;;;;;;27.04;53.19;98136.40;1673936;85;21636;-60
2021/07/19 16:26:53;;;;;;;13.65;5.62;;;;;;;27.02;52.87;98137.30;1682585;84;21606;-61